Time;durP1;ratioP1;P1;durP2;ratioP2;P2;SDS_P1;SDS_P2;PMS_P1;PMS_P2;Temp;Humidity;BMP_temperature;BMP_pressure;BME280_temperature;BME280_humidity;BME280_pressure;Samples;Min_cycle;Max_cycle;Signal;HPM_P1;HPM_P2
2022/09/09 00:01:43;;;;;;;4.03;2.15;;;;;;;20.97;59.04;100662.66;5008245;28;20033;-70
2022/09/09 00:04:23;;;;;;;4.75;2.97;;;;;;;20.98;59.72;100654.75;5008225;28;20125;-68
2022/09/09 00:07:03;;;;;;;10.75;4.20;;;;;;;20.87;60.87;100648.66;5007967;28;20073;-68
2022/09/09 00:09:30;;;;;;;;;;;;;;;20.78;60.73;100653.97;5008705;28;20049;-66
2022/09/09 00:12:12;;;;;;;6.30;4.45;;;;;;;20.70;61.31;100651.31;5008269;28;20384;-71
2022/09/09 00:14:56;;;;;;;9.43;4.88;;;;;;;20.62;61.91;100647.81;4997488;28;20485;-68
2022/09/09 00:17:27;;;;;;;9.07;4.18;;;;;;;20.31;62.52;100621.63;5006665;28;20535;-67
2022/09/09 00:20:04;;;;;;;8.00;4.55;;;;;;;20.46;62.61;100662.69;5007605;28;20097;-69
2022/09/09 00:22:32;;;;;;;8.40;4.57;;;;;;;20.22;63.21;100650.50;4975194;28;20516;-72
2022/09/09 00:25:10;;;;;;;10.52;4.50;;;;;;;20.26;63.25;100681.97;5033683;28;20482;-71
2022/09/09 00:27:50;;;;;;;6.82;4.30;;;;;;;20.25;63.21;100674.97;5069583;28;20505;-70
2022/09/09 00:30:26;;;;;;;9.65;4.18;;;;;;;20.17;63.27;100681.94;5069892;28;20081;-74
2022/09/09 00:33:00;;;;;;;8.32;4.20;;;;;;;20.09;63.85;100689.81;5069819;28;20024;-72
2022/09/09 00:35:39;;;;;;;12.13;3.72;;;;;;;20.03;63.73;100690.66;5070009;28;20048;-70
2022/09/09 00:38:15;;;;;;;6.72;4.07;;;;;;;19.71;65.05;100661.75;5069578;28;20025;-68
2022/09/09 00:41:13;;;;;;;8.13;4.03;;;;;;;19.47;65.24;100684.38;5069903;28;20032;-73
2022/09/09 00:43:40;;;;;;;10.65;4.18;;;;;;;19.45;65.04;100685.22;4968578;28;20069;-71
2022/09/09 00:46:18;;;;;;;9.05;4.07;;;;;;;19.57;65.20;100674.81;4968803;28;20023;-74
2022/09/09 00:49:19;;;;;;;14.20;4.35;;;;;;;19.78;63.92;100675.75;4968145;28;20569;-72
2022/09/09 00:51:46;;;;;;;7.45;3.97;;;;;;;19.89;64.17;100679.28;4968727;28;20425;-73
2022/09/09 00:54:37;;;;;;;10.57;4.28;;;;;;;19.99;63.89;100672.31;4968499;28;20050;-76
2022/09/09 00:57:38;;;;;;;9.13;3.67;;;;;;;20.17;63.57;100667.06;4967875;28;20046;-72
2022/09/09 01:00:23;;;;;;;8.40;4.10;;;;;;;20.08;63.60;100663.59;4910952;29;20506;-72
2022/09/09 01:03:02;;;;;;;9.88;4.68;;;;;;;19.87;63.74;100652.19;4911119;29;20086;-71
2022/09/09 01:05:54;;;;;;;7.88;4.25;;;;;;;20.04;62.98;100674.06;4910338;29;20032;-72
2022/09/09 01:08:57;;;;;;;10.27;4.50;;;;;;;20.15;62.74;100673.19;4910833;29;20048;-70
2022/09/09 01:11:26;;;;;;;10.90;4.28;;;;;;;20.25;62.88;100674.06;4911211;29;20043;-72
2022/09/09 01:14:32;;;;;;;9.05;4.03;;;;;;;20.26;62.92;100675.81;4910708;29;20171;-73
2022/09/09 01:17:03;;;;;;;10.02;4.45;;;;;;;20.34;62.88;100664.47;4854762;29;20053;-74
2022/09/09 01:19:47;;;;;;;9.85;4.63;;;;;;;20.19;63.05;100672.34;4887780;29;20044;-75
2022/09/09 01:22:43;;;;;;;13.30;4.72;;;;;;;20.14;64.09;100676.72;4910641;29;20131;-73
2022/09/09 01:25:35;;;;;;;11.55;5.00;;;;;;;20.02;64.14;100694.13;4911121;29;20032;-76
2022/09/09 01:28:08;;;;;;;7.60;4.55;;;;;;;19.68;65.53;100687.94;4910806;29;20123;-72
2022/09/09 01:30:35;;;;;;;10.52;5.47;;;;;;;19.56;65.92;100670.44;4910706;29;20028;-72
2022/09/09 01:36:07;;;;;;;7.38;4.25;;;;;;;19.49;66.89;100682.63;5154101;22;20055;-70
2022/09/09 01:38:34;;;;;;;6.88;4.43;;;;;;;19.27;67.41;100678.19;5073249;28;20077;-72
2022/09/09 01:41:00;;;;;;;7.32;4.40;;;;;;;19.01;68.77;100692.88;5071470;28;20036;-70
2022/09/09 01:43:27;;;;;;;8.10;4.57;;;;;;;18.88;69.50;100699.75;5073097;28;20031;-69
2022/09/09 01:45:55;;;;;;;6.45;4.03;;;;;;;18.88;69.51;100694.50;5054507;28;20528;-72
2022/09/09 01:48:23;;;;;;;8.23;4.18;;;;;;;18.81;70.03;100687.47;5073236;28;20020;-70
2022/09/09 01:50:48;;;;;;;8.80;4.38;;;;;;;18.80;69.64;100696.19;5072949;28;20037;-69
2022/09/09 01:53:16;;;;;;;7.50;4.10;;;;;;;18.60;70.21;100675.13;5072751;28;20016;-72
2022/09/09 01:56:03;;;;;;;6.28;4.38;;;;;;;18.82;70.41;100698.84;5072031;28;20500;-72
2022/09/09 01:58:46;;;;;;;8.30;4.53;;;;;;;18.75;70.40;100698.81;5072734;28;20052;-69
2022/09/09 02:01:27;;;;;;;9.15;4.15;;;;;;;18.72;71.08;100704.00;5072736;28;20047;-72
2022/09/09 02:03:56;;;;;;;6.20;4.00;;;;;;;18.67;71.70;100702.22;5072752;28;20067;-69
2022/09/09 02:06:30;;;;;;;8.55;4.38;;;;;;;18.66;71.32;100695.25;5072713;28;20556;-69
2022/09/09 02:08:57;;;;;;;9.13;3.83;;;;;;;18.45;71.91;100660.22;5072894;28;20032;-70
2022/09/09 02:11:25;;;;;;;6.07;4.18;;;;;;;18.72;71.88;100696.16;5072584;28;20040;-71
2022/09/09 02:14:00;;;;;;;9.90;4.22;;;;;;;18.69;72.06;100700.47;5072404;28;20028;-69
2022/09/09 02:16:47;;;;;;;8.43;4.20;;;;;;;18.59;72.20;100697.81;5072407;28;20033;-73
2022/09/09 02:19:28;;;;;;;8.73;4.15;;;;;;;18.66;72.20;100696.09;5072653;28;20023;-69
2022/09/09 02:21:56;;;;;;;6.65;3.92;;;;;;;18.74;71.74;100690.91;5072301;28;20483;-69
2022/09/09 02:24:22;;;;;;;9.05;3.92;;;;;;;18.81;71.83;100691.84;5072493;28;20032;-73
2022/09/09 02:26:52;;;;;;;7.90;4.25;;;;;;;18.75;72.26;100695.28;5072151;28;20044;-71
2022/09/09 02:29:23;;;;;;;6.80;3.97;;;;;;;18.42;73.35;100696.81;5072482;28;20024;-72
2022/09/09 02:31:51;;;;;;;9.13;4.13;;;;;;;18.46;73.77;100695.97;5072090;28;20032;-72
2022/09/09 02:34:19;;;;;;;9.73;3.97;;;;;;;18.61;73.11;100683.88;5072362;28;20059;-72
2022/09/09 02:36:46;;;;;;;7.43;4.40;;;;;;;18.58;73.44;100674.28;5072394;28;20089;-71
2022/09/09 02:39:13;;;;;;;10.32;4.70;;;;;;;18.60;72.92;100682.97;5071808;28;20082;-69
2022/09/09 02:41:41;;;;;;;7.80;4.00;;;;;;;18.61;72.98;100681.25;5072206;28;20081;-71
2022/09/09 02:44:17;;;;;;;10.82;4.05;;;;;;;18.64;72.57;100665.56;5072160;28;20036;-70
2022/09/09 02:47:04;;;;;;;12.70;4.07;;;;;;;18.69;72.14;100676.94;5071936;28;20077;-73
2022/09/09 02:50:02;;;;;;;8.07;4.32;;;;;;;18.54;72.80;100657.69;5058374;28;20032;-69
2022/09/09 02:52:32;;;;;;;9.43;4.05;;;;;;;18.46;73.18;100669.81;5070206;28;20033;-68
2022/09/09 02:55:04;;;;;;;10.82;4.70;;;;;;;18.40;73.71;100660.16;5071513;28;20029;-68
2022/09/09 02:57:31;;;;;;;9.68;3.95;;;;;;;18.34;74.02;100651.41;5071471;28;20044;-68
2022/09/09 02:59:58;;;;;;;9.40;4.18;;;;;;;18.39;74.18;100661.06;5057264;28;20024;-68
2022/09/09 03:02:25;;;;;;;9.65;4.45;;;;;;;18.25;74.69;100666.16;5071235;28;20525;-70
2022/09/09 03:04:51;;;;;;;11.93;4.03;;;;;;;18.24;75.21;100663.53;5071687;28;20050;-72
2022/09/09 03:07:20;;;;;;;8.93;3.92;;;;;;;18.23;75.45;100667.00;5068874;28;20035;-68
2022/09/09 03:09:46;;;;;;;12.38;4.60;;;;;;;18.19;75.79;100668.72;5067860;28;20036;-70
2022/09/09 03:12:11;;;;;;;9.23;4.88;;;;;;;18.14;75.67;100666.94;5066908;28;20025;-71
2022/09/09 03:14:38;;;;;;;10.30;4.60;;;;;;;18.00;76.28;100665.06;5070897;28;20044;-71
2022/09/09 03:17:04;;;;;;;10.43;4.30;;;;;;;17.85;76.41;100649.22;5071080;28;20024;-72
2022/09/09 03:19:30;;;;;;;12.13;4.53;;;;;;;17.78;76.92;100653.47;5051707;28;20048;-70
2022/09/09 03:21:55;;;;;;;10.82;4.43;;;;;;;17.70;77.67;100649.94;5070817;28;20086;-72
2022/09/09 03:24:22;;;;;;;9.50;4.28;;;;;;;17.68;76.93;100657.72;5071145;28;20031;-71
2022/09/09 03:26:48;;;;;;;10.30;4.30;;;;;;;17.59;78.55;100648.06;5071200;28;20028;-70
2022/09/09 03:29:14;;;;;;;8.57;4.00;;;;;;;17.52;80.07;100632.31;5070392;28;20032;-74
2022/09/09 03:31:40;;;;;;;12.98;4.65;;;;;;;17.48;81.22;100648.81;5070612;28;20107;-71
2022/09/09 03:34:06;;;;;;;10.45;4.20;;;;;;;17.35;82.18;100653.03;5070872;28;20143;-71
2022/09/09 03:36:32;;;;;;;8.77;4.05;;;;;;;17.34;83.08;100648.66;5070621;28;20432;-71
2022/09/09 03:38:59;;;;;;;11.10;4.88;;;;;;;17.33;83.00;100642.56;5070822;28;20078;-70
2022/09/09 03:41:25;;;;;;;9.98;4.63;;;;;;;17.40;81.24;100651.34;5070354;28;20039;-70
2022/09/09 03:43:53;;;;;;;12.05;4.68;;;;;;;17.40;79.87;100647.00;5070200;28;20033;-70
2022/09/09 03:46:24;;;;;;;7.53;4.07;;;;;;;17.46;79.88;100656.63;5070440;28;20460;-71
2022/09/09 03:48:49;;;;;;;9.27;4.07;;;;;;;17.44;79.39;100661.81;5070580;28;20050;-71
2022/09/09 03:51:15;;;;;;;11.30;4.57;;;;;;;17.34;80.08;100648.66;5070558;28;20020;-72
2022/09/09 03:53:41;;;;;;;9.43;4.20;;;;;;;17.40;79.65;100659.19;5070370;28;20028;-70
2022/09/09 03:56:07;;;;;;;9.85;4.30;;;;;;;17.50;78.94;100660.16;5070457;28;20058;-69
2022/09/09 03:58:34;;;;;;;8.48;4.53;;;;;;;17.61;79.31;100655.94;5067946;28;20495;-71
2022/09/09 04:01:16;;;;;;;11.15;4.90;;;;;;;17.64;80.13;100650.72;5070338;28;20166;-69
2022/09/09 04:03:44;;;;;;;16.55;5.68;;;;;;;17.62;80.51;100652.47;5070563;28;20025;-71
2022/09/09 04:06:14;;;;;;;13.75;5.90;;;;;;;17.45;79.90;100621.81;5070450;28;20035;-68
2022/09/09 04:08:41;;;;;;;26.40;6.75;;;;;;;17.62;79.62;100655.09;5070049;28;20021;-71
2022/09/09 04:11:07;;;;;;;18.08;6.00;;;;;;;17.70;78.69;100655.16;5070002;28;20020;-71
2022/09/09 04:13:34;;;;;;;20.90;6.35;;;;;;;17.87;77.79;100670.97;5069717;28;20482;-70
2022/09/09 04:16:01;;;;;;;15.40;6.43;;;;;;;17.89;76.41;100666.66;5069386;28;20039;-69
2022/09/09 04:18:28;;;;;;;17.92;7.18;;;;;;;18.00;76.82;100679.88;5069729;28;20518;-71
2022/09/09 04:20:56;;;;;;;15.50;6.78;;;;;;;17.95;76.94;100678.06;5069762;28;20036;-70
2022/09/09 04:23:23;;;;;;;18.63;6.25;;;;;;;17.86;77.83;100683.19;5069757;28;20040;-70
2022/09/09 04:25:51;;;;;;;16.55;6.22;;;;;;;17.97;77.60;100680.72;5069153;28;20044;-71
2022/09/09 04:28:19;;;;;;;14.25;5.38;;;;;;;17.98;78.04;100668.53;5069769;28;20017;-73
2022/09/09 04:30:45;;;;;;;18.63;4.70;;;;;;;18.13;77.75;100689.59;5069726;28;20040;-73
2022/09/09 04:33:12;;;;;;;7.47;4.43;;;;;;;18.19;76.74;100691.38;5067601;28;20032;-73
2022/09/09 04:35:38;;;;;;;9.38;3.67;;;;;;;18.14;76.34;100699.16;5067426;28;20392;-74
2022/09/09 04:38:07;;;;;;;12.52;4.45;;;;;;;18.13;76.76;100697.44;5069405;28;20032;-70
2022/09/09 04:40:33;;;;;;;9.55;4.28;;;;;;;18.07;77.01;100708.69;5069243;28;20426;-72
2022/09/09 04:42:59;;;;;;;9.70;4.65;;;;;;;18.10;77.05;100719.13;5069265;28;20031;-71
2022/09/09 04:45:26;;;;;;;10.93;4.43;;;;;;;18.06;76.68;100711.28;5069251;28;20410;-70
2022/09/09 04:47:52;;;;;;;6.70;3.90;;;;;;;18.08;76.86;100720.00;5069515;28;20108;-73
2022/09/09 04:50:18;;;;;;;8.63;4.43;;;;;;;18.00;75.56;100700.78;5068996;28;20020;-71
2022/09/09 04:52:44;;;;;;;12.05;4.30;;;;;;;18.20;75.90;100714.03;5069482;28;20093;-72
2022/09/09 04:55:09;;;;;;;10.15;4.22;;;;;;;18.23;76.06;100717.53;5069508;28;20470;-72
2022/09/09 04:57:35;;;;;;;11.15;4.35;;;;;;;18.23;76.97;100712.31;5069205;28;20458;-73
2022/09/09 05:00:01;;;;;;;12.15;4.43;;;;;;;18.03;77.35;100680.78;5069088;28;20036;-73
2022/09/09 05:02:27;;;;;;;13.38;3.78;;;;;;;18.27;77.68;100714.09;5069445;28;20042;-72
2022/09/09 05:04:52;;;;;;;9.90;3.97;;;;;;;18.19;77.51;100718.34;5068957;28;20720;-73
2022/09/09 05:07:18;;;;;;;9.43;4.03;;;;;;;18.15;78.61;100713.09;5069232;28;20024;-73
2022/09/09 05:09:45;;;;;;;9.10;4.53;;;;;;;18.11;78.47;100714.81;5069115;28;20402;-71
2022/09/09 05:12:10;;;;;;;8.73;4.30;;;;;;;18.12;79.26;100706.13;5070435;28;20113;-71
2022/09/09 05:14:37;;;;;;;6.68;4.28;;;;;;;18.27;77.97;100708.88;5073052;28;20056;-74
2022/09/09 05:17:03;;;;;;;9.98;4.05;;;;;;;18.34;76.93;100704.56;5072640;28;20039;-73
2022/09/09 05:19:30;;;;;;;11.45;4.75;;;;;;;18.40;77.51;100708.97;5072736;28;20021;-73
2022/09/09 05:21:56;;;;;;;10.93;4.30;;;;;;;18.37;77.40;100709.81;5072734;28;20501;-77
2022/09/09 05:24:23;;;;;;;11.73;4.60;;;;;;;18.50;76.48;100707.31;5072710;28;20012;-74
2022/09/09 05:26:48;;;;;;;9.93;3.90;;;;;;;18.48;76.97;100704.69;5072818;28;20056;-72
2022/09/09 05:29:14;;;;;;;11.93;4.95;;;;;;;18.42;77.35;100700.28;5071482;28;20044;-70
2022/09/09 05:31:41;;;;;;;8.90;3.88;;;;;;;18.38;78.37;100703.75;5073063;28;20480;-70
2022/09/09 05:34:06;;;;;;;12.70;4.63;;;;;;;18.46;77.65;100708.16;5072191;28;20032;-74
2022/09/09 05:36:32;;;;;;;9.02;4.60;;;;;;;18.48;77.88;100717.75;5072630;28;20020;-74
2022/09/09 05:38:57;;;;;;;10.13;4.55;;;;;;;18.32;77.29;100682.78;5072221;28;20035;-72
2022/09/09 05:41:23;;;;;;;13.52;4.20;;;;;;;18.56;77.11;100718.69;5072761;28;20060;-73
2022/09/09 05:43:49;;;;;;;7.43;3.53;;;;;;;18.71;75.71;100704.84;5072536;28;20028;-71
2022/09/09 05:46:17;;;;;;;13.10;4.03;;;;;;;18.86;75.08;100703.22;5072666;28;20441;-71
2022/09/09 05:48:47;;;;;;;11.18;4.00;;;;;;;19.02;74.72;100694.63;5072570;28;20064;-71
2022/09/09 05:51:17;;;;;;;8.18;4.10;;;;;;;19.19;74.22;100694.72;5072091;28;20032;-72
2022/09/09 05:53:43;;;;;;;14.45;4.72;;;;;;;19.32;73.70;100694.78;5068310;28;20394;-71
2022/09/09 05:56:14;;;;;;;10.95;3.83;;;;;;;19.32;73.24;100692.16;5072124;28;20020;-73
2022/09/09 05:58:40;;;;;;;12.70;4.68;;;;;;;19.33;72.77;100692.16;5071947;28;20024;-71
2022/09/09 06:01:06;;;;;;;18.27;5.15;;;;;;;19.48;73.55;100698.34;5072083;28;20032;-72
2022/09/09 06:03:35;;;;;;;13.40;4.97;;;;;;;19.58;71.92;100694.88;5072047;28;20017;-73
2022/09/09 06:06:07;;;;;;;28.55;6.65;;;;;;;19.45;70.70;100654.72;5067969;28;20060;-70
2022/09/09 06:08:34;;;;;;;27.85;5.88;;;;;;;19.84;71.02;100688.91;5069887;28;20028;-69
2022/09/09 06:11:08;;;;;;;23.13;5.22;;;;;;;19.91;69.88;100693.25;5071809;28;20452;-70
2022/09/09 06:13:34;;;;;;;12.27;4.68;;;;;;;19.96;69.80;100698.50;5071892;28;20025;-73
2022/09/09 06:16:01;;;;;;;10.27;4.38;;;;;;;20.00;70.06;100695.91;5071912;28;20040;-71
2022/09/09 06:18:27;;;;;;;18.08;5.13;;;;;;;20.06;69.48;100694.16;5071800;28;20032;-70
2022/09/09 06:21:05;;;;;;;23.67;6.22;;;;;;;20.17;69.60;100698.53;5068356;28;20044;-71
2022/09/09 06:23:31;;;;;;;21.23;5.30;;;;;;;20.26;67.48;100691.56;5069517;28;20467;-71
2022/09/09 06:26:10;;;;;;;15.55;4.43;;;;;;;20.20;67.64;100677.56;5070438;28;20032;-72
2022/09/09 06:28:36;;;;;;;16.98;4.88;;;;;;;20.16;68.07;100673.22;5072060;28;20074;-71
2022/09/09 06:31:05;;;;;;;13.52;4.63;;;;;;;20.38;68.56;100702.03;5071596;28;20111;-71
2022/09/09 06:33:34;;;;;;;22.38;4.97;;;;;;;20.57;69.20;100702.03;5070715;28;20028;-72
2022/09/09 06:36:00;;;;;;;11.52;4.80;;;;;;;20.60;69.11;100696.78;5070498;28;20048;-72
2022/09/09 06:38:25;;;;;;;18.55;5.80;;;;;;;20.75;66.85;100711.66;5071403;28;20426;-70
2022/09/09 06:40:54;;;;;;;24.35;5.78;;;;;;;20.90;67.26;100721.25;5071150;28;20035;-70
2022/09/09 06:43:20;;;;;;;15.17;4.27;;;;;;;20.96;66.14;100695.91;5070375;28;20075;-72
2022/09/09 06:45:56;;;;;;;10.35;4.40;;;;;;;21.28;65.78;100699.31;5070971;28;20028;-71
2022/09/09 06:48:22;;;;;;;17.63;4.50;;;;;;;21.39;65.54;100692.25;5071269;28;20028;-69
2022/09/09 06:50:49;;;;;;;12.63;3.88;;;;;;;21.36;66.05;100694.00;5071470;28;20422;-69
2022/09/09 06:53:18;;;;;;;13.38;4.35;;;;;;;21.42;65.16;100696.63;5070349;28;20371;-71
2022/09/09 06:55:45;;;;;;;19.00;4.88;;;;;;;21.45;64.82;100694.84;5065347;28;20112;-71
2022/09/09 06:58:10;;;;;;;15.85;4.40;;;;;;;21.46;64.48;100661.59;5071244;28;20039;-71
2022/09/09 07:00:38;;;;;;;17.65;4.35;;;;;;;21.89;64.18;100692.03;5063972;28;20385;-71
2022/09/09 07:03:05;;;;;;;17.88;3.90;;;;;;;21.92;63.75;100669.22;5067117;28;20059;-67
2022/09/09 07:05:30;;;;;;;15.52;4.15;;;;;;;22.11;63.08;100680.47;5071187;28;20399;-70
2022/09/09 07:07:56;;;;;;;15.02;3.83;;;;;;;22.30;62.43;100696.97;5069675;28;20036;-72
2022/09/09 07:10:21;;;;;;;7.15;2.88;;;;;;;22.35;61.94;100685.56;5069512;28;20025;-71
2022/09/09 07:12:53;;;;;;;7.18;3.00;;;;;;;22.53;61.44;100695.09;5070873;28;20051;-71
2022/09/09 07:15:19;;;;;;;10.90;4.03;;;;;;;22.51;61.11;100683.72;5070966;28;20025;-69
2022/09/09 07:17:44;;;;;;;12.57;3.67;;;;;;;22.51;61.23;100692.47;5070754;28;20376;-71
2022/09/09 07:20:11;;;;;;;12.65;3.60;;;;;;;22.68;60.15;100694.97;5051435;28;20059;-71
2022/09/09 07:22:36;;;;;;;14.02;3.70;;;;;;;22.56;59.80;100666.13;5070275;28;20109;-68
2022/09/09 07:25:03;;;;;;;8.82;3.60;;;;;;;22.69;59.73;100680.91;5071320;28;20134;-69
2022/09/09 07:27:28;;;;;;;12.50;3.58;;;;;;;22.78;60.12;100678.19;5070691;28;20077;-72
2022/09/09 07:29:54;;;;;;;8.60;3.67;;;;;;;22.93;59.89;100679.78;5070590;28;20033;-70
2022/09/09 07:32:20;;;;;;;16.70;4.10;;;;;;;23.09;59.19;100671.69;5070370;28;20109;-69
2022/09/09 07:34:46;;;;;;;9.73;3.83;;;;;;;23.13;59.27;100672.53;5069808;28;20380;-68
2022/09/09 07:37:13;;;;;;;15.85;4.70;;;;;;;23.23;61.28;100677.72;5070242;28;20029;-69
2022/09/09 07:39:39;;;;;;;9.38;3.58;;;;;;;23.39;59.85;100672.25;5068796;28;20028;-70
2022/09/09 07:42:05;;;;;;;9.27;3.40;;;;;;;23.37;58.84;100645.06;5070211;28;20111;-71
2022/09/09 07:44:34;;;;;;;13.65;4.40;;;;;;;23.73;58.33;100669.16;5051558;28;20495;-70
2022/09/09 07:47:00;;;;;;;8.48;3.53;;;;;;;23.80;59.47;100670.81;5069854;28;20021;-67
2022/09/09 07:49:26;;;;;;;8.93;3.63;;;;;;;23.94;59.01;100672.38;5069853;28;20406;-70
2022/09/09 07:51:51;;;;;;;11.77;3.88;;;;;;;24.02;57.87;100659.97;5070109;28;20691;-70
2022/09/09 07:54:20;;;;;;;13.18;4.28;;;;;;;23.80;58.68;100668.19;5069842;28;20037;-68
2022/09/09 07:56:46;;;;;;;10.48;3.45;;;;;;;23.74;60.16;100665.63;5069785;28;20153;-70
2022/09/09 07:59:12;;;;;;;8.55;3.72;;;;;;;23.71;60.70;100648.09;5070891;28;20082;-70
2022/09/09 08:01:47;;;;;;;11.48;3.92;;;;;;;23.87;59.49;100639.94;5069793;28;20035;-70
2022/09/09 08:04:17;;;;;;;8.70;3.13;;;;;;;24.21;60.41;100679.00;5051091;28;20037;-71
2022/09/09 08:06:48;;;;;;;15.52;3.35;;;;;;;24.20;60.79;100674.63;5070450;28;20025;-71
2022/09/09 08:09:14;;;;;;;6.55;3.17;;;;;;;24.26;62.60;100669.22;5070660;28;20025;-70
2022/09/09 08:11:41;;;;;;;7.40;2.50;;;;;;;24.48;62.33;100664.47;5069775;28;20032;-70
2022/09/09 08:14:08;;;;;;;10.50;3.40;;;;;;;24.74;60.89;100663.16;5070326;28;20029;-70
2022/09/09 08:16:36;;;;;;;9.13;3.00;;;;;;;24.80;59.17;100662.16;5070179;28;20028;-71
2022/09/09 08:19:03;;;;;;;7.65;2.80;;;;;;;24.93;57.99;100647.81;5070027;28;20020;-70
2022/09/09 08:21:31;;;;;;;4.72;2.00;;;;;;;25.06;53.89;100644.94;5069588;28;20546;-71
2022/09/09 08:23:59;;;;;;;3.75;1.80;;;;;;;25.23;49.26;100649.88;5069983;28;20032;-71
2022/09/09 08:26:28;;;;;;;3.88;1.90;;;;;;;25.27;50.24;100638.34;5069195;28;20058;-71
2022/09/09 08:28:56;;;;;;;2.78;1.90;;;;;;;25.53;50.49;100640.44;5068937;28;20117;-72
2022/09/09 08:31:30;;;;;;;1.88;1.33;;;;;;;25.51;45.37;100635.19;5069711;28;20040;-71
2022/09/09 08:33:59;;;;;;;5.35;1.90;;;;;;;25.53;44.10;100637.78;5070005;28;20033;-70
2022/09/09 08:36:26;;;;;;;6.63;1.90;;;;;;;25.58;44.38;100633.25;5069779;28;20588;-71
2022/09/09 08:38:54;;;;;;;4.82;2.00;;;;;;;25.52;43.48;100593.75;5069944;28;20036;-71
2022/09/09 08:41:31;;;;;;;2.67;1.60;;;;;;;25.81;42.84;100632.75;5069527;28;20059;-70
2022/09/09 08:44:14;;;;;;;3.40;1.40;;;;;;;25.84;42.19;100602.69;5070430;28;20031;-71
2022/09/09 08:47:01;;;;;;;3.97;1.73;;;;;;;26.29;40.46;100631.59;5069811;28;20086;-71
2022/09/09 08:49:53;;;;;;;4.10;1.60;;;;;;;26.25;40.71;100629.94;5071803;28;20017;-71
2022/09/09 08:52:29;;;;;;;6.53;1.85;;;;;;;26.24;41.44;100622.03;5072892;28;20482;-71
2022/09/09 08:55:23;;;;;;;16.40;2.72;;;;;;;26.25;42.71;100624.63;5072718;28;20577;-72
2022/09/09 08:57:53;;;;;;;3.22;1.80;;;;;;;26.45;41.48;100613.50;5073757;28;20035;-70
2022/09/09 09:00:18;;;;;;;4.07;1.83;;;;;;;26.45;41.43;100573.81;5073210;28;20036;-72
2022/09/09 09:03:05;;;;;;;1.90;1.42;;;;;;;26.82;41.35;100597.56;5070830;28;20048;-71
2022/09/09 09:06:12;;;;;;;7.90;2.65;;;;;;;27.03;40.24;100596.06;5072024;28;20039;-71
2022/09/09 09:09:15;;;;;;;4.85;1.88;;;;;;;27.19;40.60;100589.41;5030876;28;20053;-73
2022/09/09 09:11:50;;;;;;;3.72;1.70;;;;;;;27.24;40.11;100589.25;5030662;28;20033;-73
2022/09/09 09:14:18;;;;;;;4.18;1.90;;;;;;;27.01;39.88;100558.16;5031414;28;20033;-71
2022/09/09 09:16:59;;;;;;;3.22;1.60;;;;;;;27.24;39.93;100576.88;5031394;28;20399;-72
2022/09/09 09:19:26;;;;;;;5.10;1.85;;;;;;;27.49;39.59;100572.59;5031376;28;20046;-72
2022/09/09 09:21:56;;;;;;;3.25;1.70;;;;;;;27.42;40.09;100580.75;5031526;28;20419;-72
2022/09/09 09:24:33;;;;;;;3.10;1.60;;;;;;;27.60;38.98;100570.47;5031507;28;20543;-72
2022/09/09 09:27:10;;;;;;;5.43;2.13;;;;;;;27.68;39.43;100565.78;5031251;28;20040;-71
2022/09/09 09:29:37;;;;;;;3.95;1.92;;;;;;;27.69;38.09;100567.53;5031115;28;20040;-71
2022/09/09 09:32:04;;;;;;;3.88;1.92;;;;;;;27.78;39.01;100555.75;5031095;28;20040;-72
2022/09/09 09:34:29;;;;;;;5.22;1.80;;;;;;;27.97;38.57;100560.44;5030511;28;20052;-72
2022/09/09 09:36:57;;;;;;;2.90;1.58;;;;;;;28.07;37.80;100564.53;5031043;28;20510;-71
2022/09/09 09:39:25;;;;;;;4.65;1.60;;;;;;;28.05;39.26;100553.09;5030062;28;20053;-71
2022/09/09 09:41:51;;;;;;;3.70;1.95;;;;;;;28.16;38.13;100558.91;5030586;28;20029;-71
2022/09/09 09:44:37;;;;;;;2.83;1.80;;;;;;;28.03;37.42;100525.75;5041648;28;20037;-71
2022/09/09 09:47:12;;;;;;;3.83;2.35;;;;;;;28.27;37.15;100552.38;5072582;28;20028;-73
2022/09/09 09:49:37;;;;;;;5.72;2.03;;;;;;;28.38;37.05;100547.53;5072552;28;20025;-72
2022/09/09 09:52:04;;;;;;;2.83;1.60;;;;;;;28.40;36.92;100551.00;5072607;28;20410;-72
2022/09/09 09:54:35;;;;;;;9.30;2.08;;;;;;;28.47;36.86;100539.22;5072323;28;20499;-72
2022/09/09 09:57:10;;;;;;;6.68;1.95;;;;;;;28.68;35.96;100539.38;5072448;28;20021;-73
2022/09/09 09:59:40;;;;;;;7.22;1.85;;;;;;;28.71;34.90;100533.94;5053443;28;20120;-72
2022/09/09 10:02:18;;;;;;;7.20;1.98;;;;;;;28.82;34.94;100534.41;5070109;28;20024;-72
2022/09/09 10:04:47;;;;;;;2.55;1.80;;;;;;;29.06;35.06;100531.75;5069679;28;20028;-72
2022/09/09 10:07:18;;;;;;;5.97;2.10;;;;;;;29.17;34.23;100528.66;5071300;28;20020;-72
2022/09/09 10:09:44;;;;;;;5.43;2.10;;;;;;;29.33;34.16;100539.56;5069838;28;20047;-72
2022/09/09 10:12:22;;;;;;;5.72;1.80;;;;;;;29.41;33.78;100533.94;5072644;28;20390;-73
2022/09/09 10:15:13;;;;;;;2.67;2.00;;;;;;;29.23;34.07;100507.13;5070955;28;20103;-70
2022/09/09 10:18:12;;;;;;;4.53;2.30;;;;;;;29.47;33.47;100523.94;5069646;28;20095;-72
2022/09/09 10:20:47;;;;;;;5.38;2.30;;;;;;;29.66;34.15;100518.69;5072125;28;20119;-70
2022/09/09 10:23:31;;;;;;;6.38;2.60;;;;;;;29.62;34.15;100517.09;5071969;28;20021;-71
2022/09/09 10:26:06;;;;;;;2.88;1.90;;;;;;;29.87;34.13;100516.06;5062111;28;20060;-72
2022/09/09 10:29:11;;;;;;;4.43;1.90;;;;;;;29.95;32.63;100523.75;5072255;28;20032;-72
2022/09/09 10:32:11;;;;;;;3.42;2.50;;;;;;;30.07;32.18;100507.25;5071855;28;20034;-72
2022/09/09 10:35:30;;;;;;;3.90;2.20;;;;;;;29.97;32.68;100505.88;5069054;28;20434;-73
2022/09/09 10:38:23;;;;;;;3.45;2.08;;;;;;;29.81;33.00;100501.22;5020994;28;20159;-72
2022/09/09 10:40:58;;;;;;;3.03;2.10;;;;;;;29.94;32.67;100511.34;5020184;28;20076;-70
2022/09/09 10:43:55;;;;;;;3.40;2.25;;;;;;;29.93;32.40;100473.22;5019415;28;20447;-71
2022/09/09 10:47:00;;;;;;;5.00;2.10;;;;;;;30.18;31.92;100504.06;4997785;28;20085;-73
2022/09/09 10:50:03;;;;;;;13.15;2.83;;;;;;;30.29;32.49;100500.94;4999655;28;20073;-72
2022/09/09 10:52:41;;;;;;;3.60;2.00;;;;;;;30.31;32.38;100499.09;4999842;28;20030;-71
2022/09/09 10:55:14;;;;;;;3.33;2.25;;;;;;;30.39;32.73;100490.75;5001082;28;20038;-70
2022/09/09 10:57:44;;;;;;;3.58;2.28;;;;;;;30.55;32.79;100496.25;4976431;28;20492;-72
2022/09/09 11:00:15;;;;;;;4.05;1.90;;;;;;;30.69;32.52;100488.47;4999868;28;20125;-72
2022/09/09 11:02:42;;;;;;;4.35;2.17;;;;;;;30.92;32.81;100478.53;5000455;28;20121;-73
2022/09/09 11:05:35;;;;;;;4.63;2.30;;;;;;;30.87;33.95;100486.75;4999412;28;20033;-73
2022/09/09 11:08:13;;;;;;;3.17;2.10;;;;;;;30.76;33.53;100457.09;4999503;28;20117;-73
2022/09/09 11:10:55;;;;;;;5.70;2.20;;;;;;;30.93;33.46;100474.91;4999389;28;20034;-72
2022/09/09 11:13:43;;;;;;;4.05;2.20;;;;;;;30.82;32.26;100446.13;5024093;28;20446;-70
2022/09/09 11:16:26;;;;;;;6.25;2.20;;;;;;;30.65;32.86;100394.50;5049138;28;20032;-73
2022/09/09 11:19:15;;;;;;;7.78;2.38;;;;;;;31.16;32.97;100451.66;5068289;28;20097;-71
2022/09/09 11:21:46;;;;;;;5.55;2.40;;;;;;;31.21;32.49;100452.28;5047414;28;20120;-72
2022/09/09 11:24:21;;;;;;;3.08;2.13;;;;;;;30.53;33.28;100407.53;5045785;28;20025;-72
2022/09/09 11:26:56;;;;;;;5.72;2.35;;;;;;;30.95;33.14;100441.91;5048201;28;20490;-72
2022/09/09 11:29:47;;;;;;;2.92;1.98;;;;;;;30.88;33.69;100442.28;5048369;28;20028;-72
2022/09/09 11:32:21;;;;;;;4.80;2.42;;;;;;;30.87;32.66;100438.78;5045799;28;20048;-72
2022/09/09 11:35:26;;;;;;;3.38;2.15;;;;;;;31.06;33.18;100422.72;5048031;28;20527;-69
2022/09/09 11:37:51;;;;;;;4.22;2.30;;;;;;;31.33;32.93;100426.78;5047157;28;20102;-71
2022/09/09 11:40:19;;;;;;;5.72;2.50;;;;;;;31.54;32.65;100427.50;5048097;28;20443;-72
2022/09/09 11:42:49;;;;;;;4.97;2.47;;;;;;;31.68;32.42;100424.13;5047327;28;20079;-72
2022/09/09 11:45:29;;;;;;;3.45;2.22;;;;;;;31.86;31.69;100433.00;5048076;28;20025;-72
2022/09/09 11:48:02;;;;;;;3.15;2.13;;;;;;;31.83;31.81;100431.34;5047814;28;20044;-70
2022/09/09 11:50:35;;;;;;;3.65;2.38;;;;;;;31.88;32.32;100420.44;5031231;28;20057;-72